sensor_id;sensor_type;location;lat;lon;timestamp;P1;durP1;ratioP1;P2;durP2;ratioP2
1585;SDS011;786;48.718;9.514;2023-03-23T00:01:19;9.48;;;8.30;;
1585;SDS011;786;48.718;9.514;2023-03-23T00:03:48;9.32;;;7.60;;
1585;SDS011;786;48.718;9.514;2023-03-23T00:06:16;8.52;;;7.20;;
1585;SDS011;786;48.718;9.514;2023-03-23T00:08:43;10.25;;;9.13;;
1585;SDS011;786;48.718;9.514;2023-03-23T00:11:12;8.93;;;7.25;;
1585;SDS011;786;48.718;9.514;2023-03-23T00:13:39;10.43;;;8.30;;
1585;SDS011;786;48.718;9.514;2023-03-23T00:16:06;9.55;;;8.55;;
1585;SDS011;786;48.718;9.514;2023-03-23T00:18:41;12.48;;;11.18;;
1585;SDS011;786;48.718;9.514;2023-03-23T00:21:08;8.38;;;7.57;;
1585;SDS011;786;48.718;9.514;2023-03-23T00:23:34;10.48;;;9.20;;
1585;SDS011;786;48.718;9.514;2023-03-23T00:26:01;10.38;;;7.53;;
1585;SDS011;786;48.718;9.514;2023-03-23T00:28:28;8.00;;;7.20;;
1585;SDS011;786;48.718;9.514;2023-03-23T00:30:55;10.27;;;9.23;;
1585;SDS011;786;48.718;9.514;2023-03-23T00:33:23;11.80;;;10.63;;
1585;SDS011;786;48.718;9.514;2023-03-23T00:35:49;10.77;;;9.68;;
1585;SDS011;786;48.718;9.514;2023-03-23T00:38:17;10.35;;;9.27;;
1585;SDS011;786;48.718;9.514;2023-03-23T00:40:44;15.00;;;13.45;;
1585;SDS011;786;48.718;9.514;2023-03-23T00:43:12;8.10;;;7.15;;
1585;SDS011;786;48.718;9.514;2023-03-23T00:45:40;10.55;;;9.45;;
1585;SDS011;786;48.718;9.514;2023-03-23T00:48:06;10.60;;;8.90;;
1585;SDS011;786;48.718;9.514;2023-03-23T00:50:32;10.55;;;9.07;;
1585;SDS011;786;48.718;9.514;2023-03-23T00:52:59;9.63;;;8.30;;
1585;SDS011;786;48.718;9.514;2023-03-23T00:55:25;8.30;;;6.93;;
1585;SDS011;786;48.718;9.514;2023-03-23T00:57:51;10.38;;;8.75;;
1585;SDS011;786;48.718;9.514;2023-03-23T01:00:19;9.10;;;8.20;;
1585;SDS011;786;48.718;9.514;2023-03-23T01:02:47;14.07;;;12.45;;
1585;SDS011;786;48.718;9.514;2023-03-23T01:05:13;12.18;;;8.82;;
1585;SDS011;786;48.718;9.514;2023-03-23T01:07:40;10.90;;;9.80;;
1585;SDS011;786;48.718;9.514;2023-03-23T01:10:09;9.95;;;8.95;;
1585;SDS011;786;48.718;9.514;2023-03-23T01:12:37;12.82;;;9.85;;
1585;SDS011;786;48.718;9.514;2023-03-23T01:15:04;11.80;;;10.70;;
1585;SDS011;786;48.718;9.514;2023-03-23T01:17:31;11.25;;;10.15;;
1585;SDS011;786;48.718;9.514;2023-03-23T01:19:59;12.43;;;10.68;;
1585;SDS011;786;48.718;9.514;2023-03-23T01:22:25;10.50;;;9.40;;
1585;SDS011;786;48.718;9.514;2023-03-23T01:24:51;10.98;;;9.88;;
1585;SDS011;786;48.718;9.514;2023-03-23T01:27:18;11.93;;;10.73;;
1585;SDS011;786;48.718;9.514;2023-03-23T01:29:44;10.90;;;9.80;;
1585;SDS011;786;48.718;9.514;2023-03-23T01:32:10;9.80;;;8.80;;
1585;SDS011;786;48.718;9.514;2023-03-23T01:34:37;10.43;;;9.43;;
1585;SDS011;786;48.718;9.514;2023-03-23T01:37:04;11.95;;;10.75;;
1585;SDS011;786;48.718;9.514;2023-03-23T01:39:31;8.98;;;8.10;;
1585;SDS011;786;48.718;9.514;2023-03-23T01:41:57;10.20;;;9.15;;
1585;SDS011;786;48.718;9.514;2023-03-23T01:47:27;12.35;;;11.07;;
1585;SDS011;786;48.718;9.514;2023-03-23T01:49:55;8.95;;;8.10;;
1585;SDS011;786;48.718;9.514;2023-03-23T01:52:23;12.85;;;11.63;;
1585;SDS011;786;48.718;9.514;2023-03-23T01:54:54;11.90;;;10.38;;
1585;SDS011;786;48.718;9.514;2023-03-23T01:57:21;13.10;;;11.80;;
1585;SDS011;786;48.718;9.514;2023-03-23T01:59:52;9.60;;;8.65;;
1585;SDS011;786;48.718;9.514;2023-03-23T02:02:20;10.05;;;7.97;;
1585;SDS011;786;48.718;9.514;2023-03-23T02:04:48;12.45;;;10.38;;
1585;SDS011;786;48.718;9.514;2023-03-23T02:07:15;11.23;;;10.18;;
1585;SDS011;786;48.718;9.514;2023-03-23T02:09:44;12.30;;;11.20;;
1585;SDS011;786;48.718;9.514;2023-03-23T02:12:11;11.13;;;10.13;;
1585;SDS011;786;48.718;9.514;2023-03-23T02:14:37;10.65;;;9.48;;
1585;SDS011;786;48.718;9.514;2023-03-23T02:17:05;12.75;;;11.45;;
1585;SDS011;786;48.718;9.514;2023-03-23T02:19:41;11.75;;;10.52;;
1585;SDS011;786;48.718;9.514;2023-03-23T02:22:43;9.10;;;8.13;;
1585;SDS011;786;48.718;9.514;2023-03-23T02:25:25;9.35;;;8.45;;
1585;SDS011;786;48.718;9.514;2023-03-23T02:28:05;10.68;;;9.35;;
1585;SDS011;786;48.718;9.514;2023-03-23T02:30:50;12.88;;;11.63;;
1585;SDS011;786;48.718;9.514;2023-03-23T02:33:30;11.68;;;10.43;;
1585;SDS011;786;48.718;9.514;2023-03-23T02:36:04;11.77;;;9.05;;
1585;SDS011;786;48.718;9.514;2023-03-23T02:38:35;12.77;;;9.52;;
1585;SDS011;786;48.718;9.514;2023-03-23T02:41:06;10.02;;;9.02;;
1585;SDS011;786;48.718;9.514;2023-03-23T02:43:33;9.43;;;8.50;;
1585;SDS011;786;48.718;9.514;2023-03-23T02:46:03;11.60;;;8.40;;
1585;SDS011;786;48.718;9.514;2023-03-23T02:48:32;11.55;;;8.43;;
1585;SDS011;786;48.718;9.514;2023-03-23T02:50:59;10.63;;;9.63;;
1585;SDS011;786;48.718;9.514;2023-03-23T02:53:26;9.82;;;8.95;;
1585;SDS011;786;48.718;9.514;2023-03-23T02:55:54;11.77;;;10.63;;
1585;SDS011;786;48.718;9.514;2023-03-23T02:58:21;9.07;;;7.97;;
1585;SDS011;786;48.718;9.514;2023-03-23T03:00:48;13.02;;;11.73;;
1585;SDS011;786;48.718;9.514;2023-03-23T03:03:16;9.75;;;8.52;;
1585;SDS011;786;48.718;9.514;2023-03-23T03:05:47;11.57;;;10.43;;
1585;SDS011;786;48.718;9.514;2023-03-23T03:08:21;9.70;;;8.70;;
1585;SDS011;786;48.718;9.514;2023-03-23T03:10:51;13.63;;;12.20;;
1585;SDS011;786;48.718;9.514;2023-03-23T03:13:23;12.75;;;11.43;;
1585;SDS011;786;48.718;9.514;2023-03-23T03:15:57;11.32;;;10.00;;
1585;SDS011;786;48.718;9.514;2023-03-23T03:18:27;9.77;;;8.77;;
1585;SDS011;786;48.718;9.514;2023-03-23T03:20:58;11.70;;;10.52;;
1585;SDS011;786;48.718;9.514;2023-03-23T03:23:26;11.07;;;10.07;;
1585;SDS011;786;48.718;9.514;2023-03-23T03:25:54;9.65;;;8.02;;
1585;SDS011;786;48.718;9.514;2023-03-23T03:28:22;8.63;;;7.82;;
1585;SDS011;786;48.718;9.514;2023-03-23T03:30:49;13.02;;;11.50;;
1585;SDS011;786;48.718;9.514;2023-03-23T03:33:19;10.13;;;8.88;;
1585;SDS011;786;48.718;9.514;2023-03-23T03:35:50;11.05;;;9.32;;
1585;SDS011;786;48.718;9.514;2023-03-23T03:38:18;9.75;;;8.77;;
1585;SDS011;786;48.718;9.514;2023-03-23T03:40:44;11.57;;;10.50;;
1585;SDS011;786;48.718;9.514;2023-03-23T03:43:11;8.70;;;7.90;;
1585;SDS011;786;48.718;9.514;2023-03-23T03:45:37;10.35;;;9.35;;
1585;SDS011;786;48.718;9.514;2023-03-23T03:48:04;9.63;;;8.77;;
1585;SDS011;786;48.718;9.514;2023-03-23T03:50:31;9.00;;;8.25;;
1585;SDS011;786;48.718;9.514;2023-03-23T03:52:57;12.40;;;11.40;;
1585;SDS011;786;48.718;9.514;2023-03-23T03:55:25;14.48;;;13.18;;
1585;SDS011;786;48.718;9.514;2023-03-23T03:57:52;10.20;;;9.30;;
1585;SDS011;786;48.718;9.514;2023-03-23T04:00:19;11.00;;;10.10;;
1585;SDS011;786;48.718;9.514;2023-03-23T04:02:48;11.05;;;9.10;;
1585;SDS011;786;48.718;9.514;2023-03-23T04:05:19;8.82;;;7.70;;
1585;SDS011;786;48.718;9.514;2023-03-23T04:07:45;10.05;;;9.25;;
1585;SDS011;786;48.718;9.514;2023-03-23T04:10:14;8.18;;;7.32;;
1585;SDS011;786;48.718;9.514;2023-03-23T04:12:42;7.82;;;7.13;;
1585;SDS011;786;48.718;9.514;2023-03-23T04:15:09;9.38;;;8.57;;
1585;SDS011;786;48.718;9.514;2023-03-23T04:17:35;8.80;;;8.02;;
1585;SDS011;786;48.718;9.514;2023-03-23T04:20:03;9.65;;;8.75;;
1585;SDS011;786;48.718;9.514;2023-03-23T04:22:32;8.70;;;7.90;;
1585;SDS011;786;48.718;9.514;2023-03-23T04:24:59;9.10;;;8.32;;
1585;SDS011;786;48.718;9.514;2023-03-23T04:27:29;9.30;;;8.60;;
1585;SDS011;786;48.718;9.514;2023-03-23T04:29:56;8.50;;;7.70;;
1585;SDS011;786;48.718;9.514;2023-03-23T04:32:23;8.45;;;7.65;;
1585;SDS011;786;48.718;9.514;2023-03-23T04:34:53;8.20;;;7.50;;
1585;SDS011;786;48.718;9.514;2023-03-23T04:37:20;9.85;;;9.05;;
1585;SDS011;786;48.718;9.514;2023-03-23T04:39:50;9.63;;;8.77;;
1585;SDS011;786;48.718;9.514;2023-03-23T04:42:25;8.18;;;7.47;;
1585;SDS011;786;48.718;9.514;2023-03-23T04:44:53;8.18;;;7.47;;
1585;SDS011;786;48.718;9.514;2023-03-23T04:47:20;8.23;;;7.63;;
1585;SDS011;786;48.718;9.514;2023-03-23T04:49:47;7.13;;;6.45;;
1585;SDS011;786;48.718;9.514;2023-03-23T04:52:13;7.35;;;6.72;;
1585;SDS011;786;48.718;9.514;2023-03-23T04:54:39;10.63;;;9.75;;
1585;SDS011;786;48.718;9.514;2023-03-23T04:57:06;10.02;;;9.23;;
1585;SDS011;786;48.718;9.514;2023-03-23T04:59:33;8.88;;;8.07;;
1585;SDS011;786;48.718;9.514;2023-03-23T05:01:59;8.70;;;8.00;;
1585;SDS011;786;48.718;9.514;2023-03-23T05:04:27;7.35;;;6.75;;
1585;SDS011;786;48.718;9.514;2023-03-23T05:06:53;9.50;;;8.60;;
1585;SDS011;786;48.718;9.514;2023-03-23T05:09:20;7.25;;;6.65;;
1585;SDS011;786;48.718;9.514;2023-03-23T05:11:46;9.65;;;8.75;;
1585;SDS011;786;48.718;9.514;2023-03-23T05:14:13;8.68;;;7.97;;
1585;SDS011;786;48.718;9.514;2023-03-23T05:16:39;8.82;;;8.10;;
1585;SDS011;786;48.718;9.514;2023-03-23T05:19:05;8.93;;;8.23;;
1585;SDS011;786;48.718;9.514;2023-03-23T05:21:34;8.38;;;7.57;;
1585;SDS011;786;48.718;9.514;2023-03-23T05:24:00;10.50;;;8.38;;
1585;SDS011;786;48.718;9.514;2023-03-23T05:26:26;7.78;;;7.15;;
1585;SDS011;786;48.718;9.514;2023-03-23T05:28:54;8.35;;;7.70;;
1585;SDS011;786;48.718;9.514;2023-03-23T05:31:21;8.95;;;8.15;;
1585;SDS011;786;48.718;9.514;2023-03-23T05:33:48;10.60;;;9.70;;
1585;SDS011;786;48.718;9.514;2023-03-23T05:36:14;8.15;;;7.47;;
1585;SDS011;786;48.718;9.514;2023-03-23T05:38:42;8.27;;;7.47;;
1585;SDS011;786;48.718;9.514;2023-03-23T05:41:10;8.25;;;7.65;;
1585;SDS011;786;48.718;9.514;2023-03-23T05:43:37;9.38;;;8.57;;
1585;SDS011;786;48.718;9.514;2023-03-23T05:46:03;9.20;;;8.40;;
1585;SDS011;786;48.718;9.514;2023-03-23T05:48:30;7.93;;;7.22;;
1585;SDS011;786;48.718;9.514;2023-03-23T05:50:56;8.40;;;7.70;;
1585;SDS011;786;48.718;9.514;2023-03-23T05:53:22;7.90;;;7.30;;
1585;SDS011;786;48.718;9.514;2023-03-23T05:55:51;8.70;;;7.93;;
1585;SDS011;786;48.718;9.514;2023-03-23T05:58:17;10.13;;;9.35;;
1585;SDS011;786;48.718;9.514;2023-03-23T06:00:44;8.70;;;8.00;;
1585;SDS011;786;48.718;9.514;2023-03-23T06:03:11;8.30;;;7.60;;
1585;SDS011;786;48.718;9.514;2023-03-23T06:05:41;10.52;;;8.40;;
1585;SDS011;786;48.718;9.514;2023-03-23T06:08:09;6.97;;;6.30;;
1585;SDS011;786;48.718;9.514;2023-03-23T06:10:35;7.40;;;6.72;;
1585;SDS011;786;48.718;9.514;2023-03-23T06:13:03;13.93;;;12.25;;
1585;SDS011;786;48.718;9.514;2023-03-23T06:15:31;24.40;;;16.13;;
1585;SDS011;786;48.718;9.514;2023-03-23T06:17:57;25.58;;;18.25;;
1585;SDS011;786;48.718;9.514;2023-03-23T06:20:24;17.40;;;10.23;;
1585;SDS011;786;48.718;9.514;2023-03-23T06:22:50;12.43;;;10.77;;
1585;SDS011;786;48.718;9.514;2023-03-23T06:25:18;11.38;;;10.38;;
1585;SDS011;786;48.718;9.514;2023-03-23T06:27:45;8.63;;;7.85;;
1585;SDS011;786;48.718;9.514;2023-03-23T06:30:13;7.88;;;7.28;;
1585;SDS011;786;48.718;9.514;2023-03-23T06:32:40;7.50;;;6.82;;
1585;SDS011;786;48.718;9.514;2023-03-23T06:35:08;10.85;;;10.02;;
1585;SDS011;786;48.718;9.514;2023-03-23T06:37:37;11.35;;;9.02;;
1585;SDS011;786;48.718;9.514;2023-03-23T06:40:04;11.10;;;9.52;;
1585;SDS011;786;48.718;9.514;2023-03-23T06:42:31;8.30;;;7.50;;
1585;SDS011;786;48.718;9.514;2023-03-23T06:44:58;9.02;;;8.35;;
1585;SDS011;786;48.718;9.514;2023-03-23T06:47:27;8.77;;;8.07;;
1585;SDS011;786;48.718;9.514;2023-03-23T06:49:54;9.27;;;8.48;;
1585;SDS011;786;48.718;9.514;2023-03-23T06:52:21;8.60;;;7.57;;
1585;SDS011;786;48.718;9.514;2023-03-23T06:54:48;8.48;;;7.68;;
1585;SDS011;786;48.718;9.514;2023-03-23T06:57:14;8.40;;;7.60;;
1585;SDS011;786;48.718;9.514;2023-03-23T06:59:41;9.48;;;8.30;;
1585;SDS011;786;48.718;9.514;2023-03-23T07:02:08;7.05;;;6.38;;
1585;SDS011;786;48.718;9.514;2023-03-23T07:04:36;7.57;;;6.85;;
1585;SDS011;786;48.718;9.514;2023-03-23T07:07:02;8.30;;;7.70;;
1585;SDS011;786;48.718;9.514;2023-03-23T07:09:29;7.80;;;7.10;;
1585;SDS011;786;48.718;9.514;2023-03-23T07:11:55;8.27;;;7.63;;
1585;SDS011;786;48.718;9.514;2023-03-23T07:14:21;10.13;;;9.23;;
1585;SDS011;786;48.718;9.514;2023-03-23T07:16:48;8.23;;;7.63;;
1585;SDS011;786;48.718;9.514;2023-03-23T07:19:15;8.38;;;7.63;;
1585;SDS011;786;48.718;9.514;2023-03-23T07:21:42;10.30;;;9.40;;
1585;SDS011;786;48.718;9.514;2023-03-23T07:24:10;7.43;;;6.82;;
1585;SDS011;786;48.718;9.514;2023-03-23T07:26:38;8.13;;;7.32;;
1585;SDS011;786;48.718;9.514;2023-03-23T07:29:05;9.80;;;8.90;;
1585;SDS011;786;48.718;9.514;2023-03-23T07:31:31;8.52;;;7.63;;
1585;SDS011;786;48.718;9.514;2023-03-23T07:33:58;7.80;;;7.10;;
1585;SDS011;786;48.718;9.514;2023-03-23T07:36:25;7.55;;;6.47;;
1585;SDS011;786;48.718;9.514;2023-03-23T07:38:53;6.35;;;5.80;;
1585;SDS011;786;48.718;9.514;2023-03-23T07:41:19;9.40;;;8.40;;
1585;SDS011;786;48.718;9.514;2023-03-23T07:43:46;11.85;;;10.70;;
1585;SDS011;786;48.718;9.514;2023-03-23T07:46:12;14.70;;;11.05;;
1585;SDS011;786;48.718;9.514;2023-03-23T07:48:40;18.30;;;14.55;;
1585;SDS011;786;48.718;9.514;2023-03-23T07:51:06;14.00;;;12.40;;
1585;SDS011;786;48.718;9.514;2023-03-23T07:53:33;12.98;;;11.00;;
1585;SDS011;786;48.718;9.514;2023-03-23T07:56:01;11.50;;;9.57;;
1585;SDS011;786;48.718;9.514;2023-03-23T07:58:28;13.95;;;10.90;;
1585;SDS011;786;48.718;9.514;2023-03-23T08:00:55;11.93;;;10.73;;
1585;SDS011;786;48.718;9.514;2023-03-23T08:03:22;10.57;;;9.52;;
1585;SDS011;786;48.718;9.514;2023-03-23T08:05:49;11.63;;;10.48;;
1585;SDS011;786;48.718;9.514;2023-03-23T08:08:16;9.65;;;8.68;;
1585;SDS011;786;48.718;9.514;2023-03-23T08:10:43;11.25;;;8.90;;
1585;SDS011;786;48.718;9.514;2023-03-23T08:13:11;9.85;;;8.00;;
1585;SDS011;786;48.718;9.514;2023-03-23T08:15:37;10.02;;;8.65;;
1585;SDS011;786;48.718;9.514;2023-03-23T08:18:04;9.07;;;8.27;;
1585;SDS011;786;48.718;9.514;2023-03-23T08:20:31;9.68;;;8.55;;
1585;SDS011;786;48.718;9.514;2023-03-23T08:22:57;11.65;;;10.52;;
1585;SDS011;786;48.718;9.514;2023-03-23T08:25:24;8.38;;;7.45;;
1585;SDS011;786;48.718;9.514;2023-03-23T08:27:51;8.95;;;7.97;;
1585;SDS011;786;48.718;9.514;2023-03-23T08:30:20;8.23;;;7.00;;
1585;SDS011;786;48.718;9.514;2023-03-23T08:32:47;8.55;;;7.40;;
1585;SDS011;786;48.718;9.514;2023-03-23T08:35:14;10.55;;;7.22;;
1585;SDS011;786;48.718;9.514;2023-03-23T08:37:41;7.72;;;7.03;;
1585;SDS011;786;48.718;9.514;2023-03-23T08:40:08;5.95;;;5.45;;
1585;SDS011;786;48.718;9.514;2023-03-23T08:42:37;5.78;;;5.28;;
1585;SDS011;786;48.718;9.514;2023-03-23T08:45:04;5.45;;;4.95;;
1585;SDS011;786;48.718;9.514;2023-03-23T08:47:33;4.25;;;3.90;;
1585;SDS011;786;48.718;9.514;2023-03-23T08:50:00;4.03;;;3.72;;
1585;SDS011;786;48.718;9.514;2023-03-23T08:52:26;4.55;;;4.25;;
1585;SDS011;786;48.718;9.514;2023-03-23T08:54:53;3.95;;;3.65;;
1585;SDS011;786;48.718;9.514;2023-03-23T08:57:20;6.07;;;5.65;;
1585;SDS011;786;48.718;9.514;2023-03-23T08:59:46;4.95;;;4.65;;
1585;SDS011;786;48.718;9.514;2023-03-23T09:02:13;5.18;;;4.78;;
1585;SDS011;786;48.718;9.514;2023-03-23T09:04:41;5.03;;;4.53;;
1585;SDS011;786;48.718;9.514;2023-03-23T09:07:08;5.05;;;4.65;;
1585;SDS011;786;48.718;9.514;2023-03-23T09:09:35;5.03;;;4.70;;
1585;SDS011;786;48.718;9.514;2023-03-23T09:12:04;4.45;;;4.05;;
1585;SDS011;786;48.718;9.514;2023-03-23T09:14:31;4.97;;;4.57;;
1585;SDS011;786;48.718;9.514;2023-03-23T09:16:57;4.63;;;4.25;;
1585;SDS011;786;48.718;9.514;2023-03-23T09:19:23;5.10;;;4.70;;
1585;SDS011;786;48.718;9.514;2023-03-23T09:21:51;5.40;;;5.00;;
1585;SDS011;786;48.718;9.514;2023-03-23T09:24:18;4.22;;;3.92;;
1585;SDS011;786;48.718;9.514;2023-03-23T09:26:44;4.18;;;3.85;;
1585;SDS011;786;48.718;9.514;2023-03-23T09:29:11;3.70;;;3.40;;
1585;SDS011;786;48.718;9.514;2023-03-23T09:31:38;4.07;;;3.78;;
1585;SDS011;786;48.718;9.514;2023-03-23T09:34:06;4.53;;;4.13;;
1585;SDS011;786;48.718;9.514;2023-03-23T09:36:34;5.05;;;4.65;;
1585;SDS011;786;48.718;9.514;2023-03-23T09:39:02;4.35;;;4.05;;
1585;SDS011;786;48.718;9.514;2023-03-23T09:41:46;6.57;;;5.47;;
1585;SDS011;786;48.718;9.514;2023-03-23T09:44:22;6.32;;;4.97;;
1585;SDS011;786;48.718;9.514;2023-03-23T09:46:55;8.50;;;7.50;;
1585;SDS011;786;48.718;9.514;2023-03-23T09:49:25;5.03;;;4.53;;
1585;SDS011;786;48.718;9.514;2023-03-23T09:51:54;6.80;;;5.57;;
1585;SDS011;786;48.718;9.514;2023-03-23T09:54:24;5.35;;;4.85;;
1585;SDS011;786;48.718;9.514;2023-03-23T09:56:52;5.25;;;4.75;;
1585;SDS011;786;48.718;9.514;2023-03-23T09:59:20;4.80;;;4.38;;
1585;SDS011;786;48.718;9.514;2023-03-23T10:01:51;5.43;;;4.93;;
1585;SDS011;786;48.718;9.514;2023-03-23T10:04:27;8.35;;;7.18;;
1585;SDS011;786;48.718;9.514;2023-03-23T10:06:58;6.20;;;5.60;;
1585;SDS011;786;48.718;9.514;2023-03-23T10:09:27;6.53;;;5.78;;
1585;SDS011;786;48.718;9.514;2023-03-23T10:11:56;5.85;;;5.32;;
1585;SDS011;786;48.718;9.514;2023-03-23T10:14:33;5.97;;;5.22;;
1585;SDS011;786;48.718;9.514;2023-03-23T10:17:09;8.98;;;8.07;;
1585;SDS011;786;48.718;9.514;2023-03-23T10:19:41;7.45;;;6.75;;
1585;SDS011;786;48.718;9.514;2023-03-23T10:22:12;7.22;;;5.95;;
1585;SDS011;786;48.718;9.514;2023-03-23T10:24:43;6.20;;;5.47;;
1585;SDS011;786;48.718;9.514;2023-03-23T10:27:15;6.40;;;5.80;;
1585;SDS011;786;48.718;9.514;2023-03-23T10:29:48;5.70;;;5.18;;
1585;SDS011;786;48.718;9.514;2023-03-23T10:32:17;6.07;;;5.03;;
1585;SDS011;786;48.718;9.514;2023-03-23T10:34:47;7.65;;;6.93;;
1585;SDS011;786;48.718;9.514;2023-03-23T10:37:18;8.38;;;7.55;;
1585;SDS011;786;48.718;9.514;2023-03-23T10:39:50;6.20;;;5.60;;
1585;SDS011;786;48.718;9.514;2023-03-23T10:42:23;5.63;;;5.07;;
1585;SDS011;786;48.718;9.514;2023-03-23T10:44:51;6.03;;;5.45;;
1585;SDS011;786;48.718;9.514;2023-03-23T10:47:18;6.30;;;5.70;;
1585;SDS011;786;48.718;9.514;2023-03-23T10:49:46;7.60;;;6.68;;
1585;SDS011;786;48.718;9.514;2023-03-23T10:52:26;4.75;;;4.32;;
1585;SDS011;786;48.718;9.514;2023-03-23T10:54:58;8.02;;;7.13;;
1585;SDS011;786;48.718;9.514;2023-03-23T10:57:29;7.22;;;6.53;;
1585;SDS011;786;48.718;9.514;2023-03-23T10:59:59;5.47;;;4.97;;
1585;SDS011;786;48.718;9.514;2023-03-23T11:02:31;5.65;;;5.10;;
1585;SDS011;786;48.718;9.514;2023-03-23T11:04:59;7.72;;;6.82;;
1585;SDS011;786;48.718;9.514;2023-03-23T11:07:28;8.35;;;7.50;;
1585;SDS011;786;48.718;9.514;2023-03-23T11:09:57;6.38;;;5.78;;
1585;SDS011;786;48.718;9.514;2023-03-23T11:12:33;7.72;;;6.95;;
1585;SDS011;786;48.718;9.514;2023-03-23T11:15:20;7.05;;;6.35;;
1585;SDS011;786;48.718;9.514;2023-03-23T11:17:56;5.05;;;4.63;;
1585;SDS011;786;48.718;9.514;2023-03-23T11:20:27;5.10;;;4.60;;
1585;SDS011;786;48.718;9.514;2023-03-23T11:22:56;7.28;;;6.55;;
1585;SDS011;786;48.718;9.514;2023-03-23T11:25:23;6.00;;;5.40;;
1585;SDS011;786;48.718;9.514;2023-03-23T11:27:51;7.03;;;6.40;;
1585;SDS011;786;48.718;9.514;2023-03-23T11:30:20;5.45;;;4.95;;
1585;SDS011;786;48.718;9.514;2023-03-23T11:35:18;5.97;;;4.88;;
1585;SDS011;786;48.718;9.514;2023-03-23T11:37:47;8.30;;;7.50;;
1585;SDS011;786;48.718;9.514;2023-03-23T11:40:15;5.90;;;5.30;;
1585;SDS011;786;48.718;9.514;2023-03-23T11:42:45;7.65;;;6.85;;
1585;SDS011;786;48.718;9.514;2023-03-23T11:45:14;5.68;;;5.15;;
1585;SDS011;786;48.718;9.514;2023-03-23T11:47:45;7.10;;;6.45;;
1585;SDS011;786;48.718;9.514;2023-03-23T11:50:17;5.13;;;4.63;;
1585;SDS011;786;48.718;9.514;2023-03-23T11:52:47;6.53;;;5.93;;
1585;SDS011;786;48.718;9.514;2023-03-23T11:55:20;5.70;;;5.20;;
1585;SDS011;786;48.718;9.514;2023-03-23T11:57:51;6.78;;;6.15;;
1585;SDS011;786;48.718;9.514;2023-03-23T12:00:18;6.35;;;5.72;;
1585;SDS011;786;48.718;9.514;2023-03-23T12:02:47;8.10;;;7.40;;
1585;SDS011;786;48.718;9.514;2023-03-23T12:11:06;7.70;;;7.00;;
1585;SDS011;786;48.718;9.514;2023-03-23T12:13:45;7.55;;;6.85;;
1585;SDS011;786;48.718;9.514;2023-03-23T12:16:23;8.18;;;7.38;;
1585;SDS011;786;48.718;9.514;2023-03-23T12:18:58;6.93;;;6.28;;
1585;SDS011;786;48.718;9.514;2023-03-23T12:21:32;8.63;;;7.85;;
1585;SDS011;786;48.718;9.514;2023-03-23T12:24:06;11.15;;;10.07;;
1585;SDS011;786;48.718;9.514;2023-03-23T12:26:41;9.77;;;8.77;;
1585;SDS011;786;48.718;9.514;2023-03-23T12:32:13;10.50;;;9.60;;
1585;SDS011;786;48.718;9.514;2023-03-23T12:34:58;10.07;;;9.15;;
1585;SDS011;786;48.718;9.514;2023-03-23T12:37:35;7.90;;;7.15;;
1585;SDS011;786;48.718;9.514;2023-03-23T12:40:16;5.80;;;5.20;;
1585;SDS011;786;48.718;9.514;2023-03-23T12:42:51;5.38;;;4.53;;
1585;SDS011;786;48.718;9.514;2023-03-23T12:45:24;6.43;;;5.82;;
1585;SDS011;786;48.718;9.514;2023-03-23T12:48:03;9.65;;;8.70;;
1585;SDS011;786;48.718;9.514;2023-03-23T12:50:35;7.90;;;7.05;;
1585;SDS011;786;48.718;9.514;2023-03-23T12:53:06;8.88;;;7.97;;
1585;SDS011;786;48.718;9.514;2023-03-23T12:55:37;7.57;;;6.80;;
1585;SDS011;786;48.718;9.514;2023-03-23T12:58:08;8.77;;;7.93;;
1585;SDS011;786;48.718;9.514;2023-03-23T13:00:48;7.40;;;6.65;;
1585;SDS011;786;48.718;9.514;2023-03-23T13:03:17;6.05;;;5.45;;
1585;SDS011;786;48.718;9.514;2023-03-23T13:08:21;7.20;;;6.45;;
1585;SDS011;786;48.718;9.514;2023-03-23T13:10:50;6.05;;;5.45;;
1585;SDS011;786;48.718;9.514;2023-03-23T13:13:18;6.07;;;5.47;;
1585;SDS011;786;48.718;9.514;2023-03-23T13:15:55;5.80;;;5.20;;
1585;SDS011;786;48.718;9.514;2023-03-23T13:18:29;5.93;;;5.32;;
1585;SDS011;786;48.718;9.514;2023-03-23T13:21:11;7.82;;;7.07;;
1585;SDS011;786;48.718;9.514;2023-03-23T13:23:41;6.72;;;6.10;;
1585;SDS011;786;48.718;9.514;2023-03-23T13:26:09;5.45;;;4.95;;
1585;SDS011;786;48.718;9.514;2023-03-23T13:28:46;5.72;;;5.13;;
1585;SDS011;786;48.718;9.514;2023-03-23T13:31:22;5.95;;;5.35;;
1585;SDS011;786;48.718;9.514;2023-03-23T13:33:57;5.50;;;5.00;;
1585;SDS011;786;48.718;9.514;2023-03-23T13:36:28;6.53;;;5.93;;
1585;SDS011;786;48.718;9.514;2023-03-23T13:38:57;10.82;;;9.43;;
1585;SDS011;786;48.718;9.514;2023-03-23T13:41:25;6.53;;;5.18;;
1585;SDS011;786;48.718;9.514;2023-03-23T13:43:52;11.40;;;10.20;;
1585;SDS011;786;48.718;9.514;2023-03-23T13:46:32;6.22;;;5.63;;
1585;SDS011;786;48.718;9.514;2023-03-23T13:51:51;7.75;;;6.95;;
1585;SDS011;786;48.718;9.514;2023-03-23T13:54:23;7.80;;;6.88;;
1585;SDS011;786;48.718;9.514;2023-03-23T13:56:53;6.07;;;5.50;;
1585;SDS011;786;48.718;9.514;2023-03-23T13:59:31;5.47;;;4.97;;
1585;SDS011;786;48.718;9.514;2023-03-23T14:04:53;6.47;;;5.85;;
1585;SDS011;786;48.718;9.514;2023-03-23T14:07:20;10.10;;;8.90;;
1585;SDS011;786;48.718;9.514;2023-03-23T14:09:49;8.90;;;7.97;;
1585;SDS011;786;48.718;9.514;2023-03-23T14:12:17;5.80;;;5.20;;
1585;SDS011;786;48.718;9.514;2023-03-23T14:14:45;9.00;;;8.07;;
1585;SDS011;786;48.718;9.514;2023-03-23T14:17:13;8.10;;;7.25;;
1585;SDS011;786;48.718;9.514;2023-03-23T14:19:42;8.23;;;7.32;;
1585;SDS011;786;48.718;9.514;2023-03-23T14:22:19;7.50;;;6.32;;
1585;SDS011;786;48.718;9.514;2023-03-23T14:24:46;8.32;;;7.45;;
1585;SDS011;786;48.718;9.514;2023-03-23T14:27:13;7.55;;;6.80;;
1585;SDS011;786;48.718;9.514;2023-03-23T14:29:41;8.00;;;7.20;;
1585;SDS011;786;48.718;9.514;2023-03-23T14:32:11;9.73;;;8.40;;
1585;SDS011;786;48.718;9.514;2023-03-23T14:34:42;12.07;;;10.07;;
1585;SDS011;786;48.718;9.514;2023-03-23T14:37:10;9.68;;;7.93;;
1585;SDS011;786;48.718;9.514;2023-03-23T14:39:38;10.60;;;9.50;;
1585;SDS011;786;48.718;9.514;2023-03-23T14:42:05;8.23;;;7.43;;
1585;SDS011;786;48.718;9.514;2023-03-23T14:44:42;8.02;;;7.13;;
1585;SDS011;786;48.718;9.514;2023-03-23T14:47:13;8.57;;;7.30;;
1585;SDS011;786;48.718;9.514;2023-03-23T14:49:43;8.10;;;6.88;;
1585;SDS011;786;48.718;9.514;2023-03-23T14:52:11;10.30;;;8.88;;
1585;SDS011;786;48.718;9.514;2023-03-23T14:54:38;8.90;;;7.97;;
1585;SDS011;786;48.718;9.514;2023-03-23T14:57:10;10.13;;;9.07;;
1585;SDS011;786;48.718;9.514;2023-03-23T14:59:39;8.82;;;7.45;;
1585;SDS011;786;48.718;9.514;2023-03-23T15:02:08;8.77;;;7.63;;
1585;SDS011;786;48.718;9.514;2023-03-23T15:04:38;7.93;;;6.97;;
1585;SDS011;786;48.718;9.514;2023-03-23T15:07:06;11.15;;;10.00;;
1585;SDS011;786;48.718;9.514;2023-03-23T15:09:34;9.25;;;7.53;;
1585;SDS011;786;48.718;9.514;2023-03-23T15:12:05;9.85;;;8.77;;
1585;SDS011;786;48.718;9.514;2023-03-23T15:14:32;10.02;;;8.13;;
1585;SDS011;786;48.718;9.514;2023-03-23T15:17:00;7.00;;;6.30;;
1585;SDS011;786;48.718;9.514;2023-03-23T15:19:27;6.40;;;5.18;;
1585;SDS011;786;48.718;9.514;2023-03-23T15:21:55;7.85;;;7.05;;
1585;SDS011;786;48.718;9.514;2023-03-23T15:24:32;5.80;;;5.20;;
1585;SDS011;786;48.718;9.514;2023-03-23T15:27:03;9.98;;;8.55;;
1585;SDS011;786;48.718;9.514;2023-03-23T15:29:48;7.50;;;6.30;;
1585;SDS011;786;48.718;9.514;2023-03-23T15:32:20;6.00;;;5.45;;
1585;SDS011;786;48.718;9.514;2023-03-23T15:34:48;6.25;;;4.82;;
1585;SDS011;786;48.718;9.514;2023-03-23T15:37:17;9.98;;;8.98;;
1585;SDS011;786;48.718;9.514;2023-03-23T15:39:47;8.00;;;7.18;;
1585;SDS011;786;48.718;9.514;2023-03-23T15:42:21;4.95;;;4.63;;
1585;SDS011;786;48.718;9.514;2023-03-23T15:44:56;5.60;;;4.40;;
1585;SDS011;786;48.718;9.514;2023-03-23T15:47:34;7.40;;;6.90;;
1585;SDS011;786;48.718;9.514;2023-03-23T15:50:03;5.10;;;4.70;;
1585;SDS011;786;48.718;9.514;2023-03-23T15:52:33;5.90;;;5.50;;
1585;SDS011;786;48.718;9.514;2023-03-23T15:55:01;8.07;;;7.57;;
1585;SDS011;786;48.718;9.514;2023-03-23T15:57:28;6.85;;;6.38;;
1585;SDS011;786;48.718;9.514;2023-03-23T15:59:54;7.63;;;6.95;;